Time;durP1;ratioP1;P1;durP2;ratioP2;P2;SDS_P1;SDS_P2;PMS_P1;PMS_P2;Temp;Humidity;BMP_temperature;BMP_pressure;BME280_temperature;BME280_humidity;BME280_pressure;Samples;Min_cycle;Max_cycle;Signal;HPM_P1;HPM_P2
2023/04/05 00:02:28;;;;;;;26.25;5.38;;;13.70;99.90;;;;;;5115281;27;20441;-72
2023/04/05 00:04:57;;;;;;;26.63;5.70;;;13.70;99.90;;;;;;5075863;28;20432;-72
2023/04/05 00:07:25;;;;;;;26.63;5.97;;;13.70;99.90;;;;;;5073766;28;20505;-72
2023/04/05 00:09:51;;;;;;;25.02;5.82;;;13.70;99.90;;;;;;5083429;28;20513;-72
2023/04/05 00:12:18;;;;;;;28.37;6.20;;;13.70;99.90;;;;;;5092362;28;20409;-72
2023/04/05 00:14:44;;;;;;;27.25;5.80;;;13.70;99.90;;;;;;5076766;28;20406;-73
2023/04/05 00:17:12;;;;;;;23.95;5.60;;;13.70;99.90;;;;;;5073583;28;20906;-72
2023/04/05 00:19:38;;;;;;;23.90;5.40;;;13.70;99.90;;;;;;5082321;28;20413;-72
2023/04/05 00:22:04;;;;;;;25.10;6.13;;;13.80;99.90;;;;;;5078062;28;20490;-72
2023/04/05 00:24:32;;;;;;;29.90;6.50;;;13.80;99.90;;;;;;5073901;28;20876;-72
2023/04/05 00:26:59;;;;;;;30.63;6.68;;;13.80;99.90;;;;;;5081400;28;20421;-72
2023/04/05 00:29:26;;;;;;;20.60;5.22;;;13.80;99.90;;;;;;5076332;28;20437;-72
2023/04/05 00:31:52;;;;;;;26.80;5.82;;;13.80;99.90;;;;;;5080980;28;20439;-72
2023/04/05 00:34:19;;;;;;;22.90;5.45;;;13.80;99.90;;;;;;5079972;28;20405;-72
2023/04/05 00:36:45;;;;;;;24.42;5.55;;;13.80;99.90;;;;;;5106221;27;20820;-72
2023/04/05 00:39:13;;;;;;;22.92;5.60;;;13.80;99.90;;;;;;5093748;28;20794;-72
2023/04/05 00:41:39;;;;;;;25.90;5.60;;;13.80;99.90;;;;;;5078513;28;20405;-72
2023/04/05 00:44:06;;;;;;;25.83;6.15;;;13.70;99.90;;;;;;5081353;28;20725;-72
2023/04/05 00:46:36;;;;;;;25.42;5.70;;;13.70;99.90;;;;;;5078344;28;20410;-73
2023/04/05 00:49:04;;;;;;;29.98;5.82;;;13.70;99.90;;;;;;5081006;28;20423;-72
2023/04/05 00:51:32;;;;;;;25.38;6.00;;;13.70;99.90;;;;;;5085020;28;20822;-73
2023/04/05 00:54:01;;;;;;;24.55;5.82;;;13.70;99.90;;;;;;5080413;28;20777;-72
2023/04/05 00:56:29;;;;;;;24.83;5.85;;;13.70;99.90;;;;;;5074551;28;20418;-72
2023/04/05 00:58:55;;;;;;;23.10;5.90;;;13.70;99.90;;;;;;5075707;28;20410;-72
2023/04/05 01:01:25;;;;;;;25.02;6.05;;;13.70;99.90;;;;;;5084952;28;20458;-72
2023/04/05 01:04:01;;;;;;;25.70;6.25;;;13.70;99.90;;;;;;5074069;28;20453;-72
2023/04/05 01:06:39;;;;;;;24.02;5.88;;;13.60;99.90;;;;;;5090636;28;20422;-72
2023/04/05 01:09:22;;;;;;;20.90;5.53;;;13.60;99.90;;;;;;5083301;28;20523;-72
2023/04/05 01:11:50;;;;;;;19.98;5.30;;;13.50;99.90;;;;;;5086889;28;20410;-72
2023/04/05 01:14:17;;;;;;;23.48;5.70;;;13.50;99.90;;;;;;5084642;28;20398;-72
2023/04/05 01:16:44;;;;;;;24.60;5.93;;;13.50;99.90;;;;;;5104356;28;20931;-72
2023/04/05 01:19:12;;;;;;;22.88;5.63;;;13.50;99.90;;;;;;5097825;28;20409;-72
2023/04/05 01:22:19;;;;;;;25.23;5.95;;;13.50;99.90;;;;;;5081571;28;20417;-72
2023/04/05 01:25:21;;;;;;;24.15;5.88;;;13.50;99.90;;;;;;5074385;28;21179;-72
2023/04/05 01:28:13;;;;;;;24.92;6.40;;;13.60;99.90;;;;;;5078650;28;20444;-72
2023/04/05 01:30:48;;;;;;;23.92;5.78;;;13.60;99.90;;;;;;5088101;28;20867;-72
2023/04/05 01:33:36;;;;;;;22.92;5.80;;;13.60;99.90;;;;;;5083372;28;20416;-72
2023/04/05 01:36:11;;;;;;;20.80;5.07;;;13.60;99.90;;;;;;5081331;28;20407;-73
2023/04/05 01:38:42;;;;;;;21.33;5.55;;;13.60;99.90;;;;;;5118957;27;20454;-73
2023/04/05 01:41:09;;;;;;;24.02;5.55;;;13.60;99.90;;;;;;5070917;28;20411;-72
2023/04/05 01:43:35;;;;;;;21.48;5.50;;;13.60;99.90;;;;;;5076696;28;20400;-72
2023/04/05 01:46:03;;;;;;;23.45;5.55;;;13.60;99.90;;;;;;5087771;28;20407;-73
2023/04/05 01:48:29;;;;;;;24.73;6.10;;;13.60;99.90;;;;;;5100770;27;20403;-73
2023/04/05 01:50:55;;;;;;;25.92;6.00;;;13.60;99.90;;;;;;5084285;28;20512;-73
2023/04/05 01:53:22;;;;;;;29.93;6.27;;;13.60;99.90;;;;;;5115644;27;20498;-73
2023/04/05 01:55:48;;;;;;;24.08;5.68;;;13.60;99.90;;;;;;5081220;28;20425;-72
2023/04/05 01:58:14;;;;;;;25.63;5.95;;;13.70;99.90;;;;;;5063520;28;20419;-72
2023/04/05 02:00:40;;;;;;;25.73;5.60;;;13.70;99.90;;;;;;5104451;28;20406;-72
2023/04/05 02:03:06;;;;;;;21.15;5.65;;;13.70;99.90;;;;;;5079330;28;20436;-72
2023/04/05 02:05:33;;;;;;;25.73;6.03;;;13.70;99.90;;;;;;5077408;28;20402;-73
2023/04/05 02:08:01;;;;;;;23.25;5.70;;;13.70;99.90;;;;;;5112627;27;20387;-72
2023/04/05 02:10:28;;;;;;;23.88;5.88;;;13.70;99.90;;;;;;5086052;28;20453;-73
2023/04/05 02:12:54;;;;;;;22.52;5.55;;;13.70;99.90;;;;;;5079393;28;20398;-72
2023/04/05 02:15:20;;;;;;;22.15;5.50;;;13.70;99.90;;;;;;5085920;28;20391;-73
2023/04/05 02:17:46;;;;;;;24.35;6.15;;;13.70;99.90;;;;;;5077185;28;20510;-73
2023/04/05 02:20:13;;;;;;;24.33;5.78;;;13.60;99.90;;;;;;5056948;28;20469;-72
2023/04/05 02:22:44;;;;;;;21.23;5.38;;;13.60;99.90;;;;;;5105571;27;20406;-72
2023/04/05 02:25:11;;;;;;;20.30;5.40;;;13.60;99.90;;;;;;5074147;28;20451;-73
2023/04/05 02:27:38;;;;;;;21.60;5.32;;;13.50;99.90;;;;;;5077294;28;20816;-72
2023/04/05 02:30:05;;;;;;;22.60;5.50;;;13.50;99.90;;;;;;5068015;28;20409;-72
2023/04/05 02:32:31;;;;;;;20.75;5.80;;;13.50;99.90;;;;;;5080347;28;20466;-73
2023/04/05 02:34:57;;;;;;;22.98;5.43;;;13.60;99.90;;;;;;5097925;27;20922;-72
2023/04/05 02:37:25;;;;;;;20.75;5.25;;;13.60;99.90;;;;;;5072347;28;20427;-73
2023/04/05 02:39:51;;;;;;;27.33;5.83;;;13.50;99.90;;;;;;5073222;28;20411;-72
2023/04/05 02:42:18;;;;;;;23.15;5.55;;;13.60;99.90;;;;;;5079974;28;20418;-73
2023/04/05 02:44:45;;;;;;;22.95;5.28;;;13.60;99.90;;;;;;5076259;28;20430;-72
2023/04/05 02:47:11;;;;;;;22.92;5.20;;;13.50;99.90;;;;;;5076752;28;20408;-73
2023/04/05 02:49:37;;;;;;;18.55;5.03;;;13.60;99.90;;;;;;5078434;28;20885;-72
2023/04/05 02:52:04;;;;;;;18.42;4.55;;;13.60;99.90;;;;;;5086458;28;20417;-72
2023/04/05 02:54:30;;;;;;;19.65;5.35;;;13.60;99.90;;;;;;5074722;28;20411;-72
2023/04/05 02:56:56;;;;;;;22.27;5.78;;;13.60;99.90;;;;;;5098309;28;20774;-72
2023/04/05 02:59:23;;;;;;;20.67;5.22;;;13.60;99.90;;;;;;5074851;28;20612;-72
2023/04/05 03:01:49;;;;;;;20.02;5.43;;;13.60;99.90;;;;;;5083406;28;20409;-72
2023/04/05 03:04:16;;;;;;;18.42;5.20;;;13.60;99.90;;;;;;5079243;28;20488;-72
2023/04/05 03:06:45;;;;;;;21.05;5.13;;;13.60;99.90;;;;;;5095722;28;20421;-73
2023/04/05 03:09:11;;;;;;;18.30;5.10;;;13.50;99.90;;;;;;5078136;28;20530;-72
2023/04/05 03:11:37;;;;;;;20.43;5.30;;;13.60;99.90;;;;;;5064567;28;20393;-72
2023/04/05 03:14:03;;;;;;;26.40;6.00;;;13.70;99.90;;;;;;5079818;28;20406;-72
2023/04/05 03:16:29;;;;;;;21.58;5.50;;;13.70;99.90;;;;;;5085799;28;20450;-72
2023/04/05 03:18:56;;;;;;;22.02;6.05;;;13.70;99.90;;;;;;5084802;28;20991;-73
2023/04/05 03:21:22;;;;;;;26.17;6.00;;;13.70;99.90;;;;;;5078356;28;20422;-72
2023/04/05 03:23:49;;;;;;;24.40;5.75;;;13.70;99.90;;;;;;5075707;28;20418;-73
2023/04/05 03:26:15;;;;;;;23.25;5.38;;;13.60;99.90;;;;;;5085194;28;20421;-72
2023/04/05 03:28:45;;;;;;;23.15;5.40;;;13.60;99.90;;;;;;5109225;27;20428;-72
2023/04/05 03:31:12;;;;;;;22.07;5.37;;;13.60;99.90;;;;;;5059048;28;20423;-72
2023/04/05 03:33:38;;;;;;;22.13;4.97;;;13.60;99.90;;;;;;5079098;28;20448;-72
2023/04/05 03:36:05;;;;;;;22.58;5.47;;;13.60;99.90;;;;;;5079079;28;20473;-72
2023/04/05 03:38:31;;;;;;;20.25;5.28;;;13.60;99.90;;;;;;5076760;28;20844;-72
2023/04/05 03:40:57;;;;;;;20.65;5.50;;;13.60;99.90;;;;;;5081043;28;20410;-73
2023/04/05 03:43:24;;;;;;;24.10;5.47;;;13.60;99.90;;;;;;5097771;28;20406;-72
2023/04/05 03:45:50;;;;;;;21.13;5.00;;;13.60;99.90;;;;;;5113128;27;20410;-72
2023/04/05 03:48:19;;;;;;;21.17;5.43;;;13.50;99.90;;;;;;5073316;28;20820;-72
2023/04/05 03:50:46;;;;;;;21.45;5.20;;;13.60;99.90;;;;;;5092238;28;20448;-72
2023/04/05 03:53:12;;;;;;;23.15;5.93;;;13.60;99.90;;;;;;5064372;28;20406;-73
2023/04/05 03:55:39;;;;;;;21.45;5.68;;;13.50;99.90;;;;;;5084065;28;20415;-73
2023/04/05 03:58:05;;;;;;;19.88;5.13;;;13.60;99.90;;;;;;5078241;28;20417;-72
2023/04/05 04:00:31;;;;;;;20.10;5.17;;;13.50;99.90;;;;;;5074326;28;20426;-72
2023/04/05 04:02:58;;;;;;;23.00;5.40;;;13.50;99.90;;;;;;5081888;28;20459;-73
2023/04/05 04:05:25;;;;;;;28.00;5.40;;;13.50;99.90;;;;;;5078489;28;20426;-72
2023/04/05 04:07:51;;;;;;;19.75;5.07;;;13.60;99.90;;;;;;5078646;28;20421;-72
2023/04/05 04:10:17;;;;;;;22.57;5.47;;;13.60;99.90;;;;;;5088247;28;20434;-72
2023/04/05 04:12:44;;;;;;;19.67;5.30;;;13.60;99.90;;;;;;5080948;28;20418;-72
2023/04/05 04:15:11;;;;;;;18.60;4.55;;;13.60;99.90;;;;;;5077221;28;20418;-72
2023/04/05 04:17:38;;;;;;;22.92;5.07;;;13.60;99.90;;;;;;5078902;28;20419;-73
2023/04/05 04:20:11;;;;;;;20.67;5.07;;;13.50;99.90;;;;;;5077599;28;21068;-72
2023/04/05 04:22:39;;;;;;;18.90;4.57;;;13.60;99.90;;;;;;5076834;28;20933;-73
2023/04/05 04:25:10;;;;;;;19.23;4.80;;;13.60;99.90;;;;;;5077719;28;20470;-72
2023/04/05 04:27:41;;;;;;;18.75;5.10;;;13.70;99.90;;;;;;5079091;28;20470;-72
2023/04/05 04:30:13;;;;;;;18.83;4.50;;;13.70;99.90;;;;;;5078770;28;20944;-72
2023/04/05 04:32:53;;;;;;;17.95;5.03;;;13.70;99.90;;;;;;5079589;28;20414;-72
2023/04/05 04:35:28;;;;;;;18.95;4.63;;;13.70;99.90;;;;;;5077654;28;20401;-72
2023/04/05 04:37:59;;;;;;;20.55;4.80;;;13.70;99.90;;;;;;5075339;28;20759;-72
2023/04/05 04:40:45;;;;;;;19.80;4.68;;;13.70;99.90;;;;;;5080648;28;20417;-72
2023/04/05 04:43:25;;;;;;;21.50;4.40;;;13.80;99.90;;;;;;5074686;28;20526;-73
2023/04/05 04:45:53;;;;;;;18.42;4.72;;;13.70;99.90;;;;;;5077069;28;20497;-73
2023/04/05 04:48:20;;;;;;;19.85;4.28;;;13.70;99.90;;;;;;5063265;28;20406;-72
2023/04/05 04:50:48;;;;;;;23.60;5.40;;;13.80;99.90;;;;;;5088400;28;20420;-73
2023/04/05 04:53:17;;;;;;;18.95;4.63;;;13.80;99.90;;;;;;5076411;28;20462;-72
2023/04/05 04:55:48;;;;;;;19.20;4.50;;;13.90;99.90;;;;;;5082416;28;20443;-73
2023/04/05 04:58:16;;;;;;;21.25;5.10;;;13.90;99.90;;;;;;5076706;28;20429;-72
2023/04/05 05:00:43;;;;;;;17.52;4.85;;;13.90;99.90;;;;;;5095819;28;20738;-72
2023/04/05 05:03:38;;;;;;;21.33;4.85;;;14.00;99.90;;;;;;5071656;28;20394;-72
2023/04/05 05:06:04;;;;;;;18.33;4.65;;;14.10;99.90;;;;;;5110644;27;20465;-72
2023/04/05 05:08:31;;;;;;;20.70;4.30;;;14.10;99.90;;;;;;5079895;28;21120;-72
2023/04/05 05:10:57;;;;;;;17.85;4.55;;;14.10;99.90;;;;;;5079639;28;20441;-73
2023/04/05 05:13:28;;;;;;;20.20;4.95;;;14.10;99.90;;;;;;5077549;28;20407;-72
2023/04/05 05:15:55;;;;;;;16.25;4.47;;;14.10;99.90;;;;;;5081409;28;20413;-72
2023/04/05 05:18:21;;;;;;;18.13;4.30;;;14.10;99.90;;;;;;5087687;28;20423;-72
2023/04/05 05:20:50;;;;;;;17.20;4.20;;;14.10;99.90;;;;;;5077585;28;20417;-72
2023/04/05 05:23:17;;;;;;;14.85;4.10;;;14.10;99.90;;;;;;5078947;28;20409;-73
2023/04/05 05:25:43;;;;;;;19.58;4.18;;;14.20;99.90;;;;;;5108396;27;20414;-73
2023/04/05 05:28:09;;;;;;;19.20;4.30;;;14.20;99.90;;;;;;5056084;28;20502;-72
2023/04/05 05:30:35;;;;;;;16.63;4.00;;;14.30;99.90;;;;;;5080095;28;20441;-72
2023/04/05 05:33:02;;;;;;;16.90;3.92;;;14.50;99.90;;;;;;5077724;28;20432;-72
2023/04/05 05:35:28;;;;;;;18.08;4.10;;;14.60;99.90;;;;;;5074927;28;20478;-72
2023/04/05 05:37:54;;;;;;;17.63;3.90;;;14.60;99.90;;;;;;5091621;28;20449;-72
2023/04/05 05:40:21;;;;;;;16.55;4.18;;;14.60;99.90;;;;;;5100495;28;20914;-73
2023/04/05 05:42:47;;;;;;;16.30;4.10;;;14.50;99.90;;;;;;5081126;28;20499;-73
2023/04/05 05:45:14;;;;;;;14.20;4.03;;;14.40;99.90;;;;;;5071656;28;20420;-72
2023/04/05 05:47:41;;;;;;;16.87;4.30;;;14.40;99.90;;;;;;5102780;28;20922;-73
2023/04/05 05:50:08;;;;;;;20.63;4.63;;;14.40;99.90;;;;;;5071895;28;21110;-72
2023/04/05 05:52:35;;;;;;;16.60;4.40;;;14.50;99.90;;;;;;5111211;27;20521;-72
2023/04/05 05:55:01;;;;;;;18.23;4.72;;;14.50;99.90;;;;;;5076908;28;20524;-73
2023/04/05 05:57:27;;;;;;;20.23;4.43;;;14.50;99.90;;;;;;5072782;28;20447;-73
2023/04/05 05:59:53;;;;;;;17.45;4.55;;;14.60;99.90;;;;;;5080627;28;20894;-72
2023/04/05 06:02:19;;;;;;;19.63;4.40;;;14.70;99.90;;;;;;5106975;27;20394;-73
2023/04/05 06:04:46;;;;;;;13.82;3.92;;;14.70;99.90;;;;;;5078817;28;20762;-72
2023/04/05 06:07:12;;;;;;;16.15;3.95;;;14.80;99.90;;;;;;5076488;28;20414;-73
2023/04/05 06:09:39;;;;;;;13.70;3.50;;;14.80;99.90;;;;;;5074326;28;20421;-72
2023/04/05 06:12:06;;;;;;;19.35;4.03;;;14.90;99.90;;;;;;5083921;28;20428;-72
2023/04/05 06:14:32;;;;;;;15.13;3.70;;;14.90;99.90;;;;;;5081844;28;20524;-72
2023/04/05 06:16:58;;;;;;;16.45;4.13;;;14.90;99.90;;;;;;5072542;28;20536;-72
2023/04/05 06:19:25;;;;;;;16.70;3.88;;;14.80;99.90;;;;;;5082115;28;20422;-72
2023/04/05 06:21:51;;;;;;;13.85;3.63;;;14.90;99.90;;;;;;5075749;28;21105;-72
2023/04/05 06:24:20;;;;;;;16.67;3.67;;;14.90;99.90;;;;;;5056632;28;20764;-73
2023/04/05 06:26:46;;;;;;;18.73;4.30;;;14.90;99.90;;;;;;5075488;28;20826;-72
2023/04/05 06:29:13;;;;;;;20.53;4.10;;;14.90;99.90;;;;;;5081301;28;20457;-72
2023/04/05 06:31:41;;;;;;;14.18;3.42;;;15.00;99.90;;;;;;5070135;28;20502;-72
2023/04/05 06:34:07;;;;;;;14.18;3.53;;;15.10;99.90;;;;;;5074351;28;20528;-72
2023/04/05 06:36:33;;;;;;;18.23;3.58;;;15.30;99.90;;;;;;5083609;28;20541;-72
2023/04/05 06:39:00;;;;;;;19.48;3.80;;;15.50;99.90;;;;;;5078263;28;20444;-72
2023/04/05 06:41:27;;;;;;;15.00;3.58;;;15.60;99.90;;;;;;5076528;28;20394;-72
2023/04/05 06:43:53;;;;;;;12.25;3.20;;;15.60;99.90;;;;;;5074942;28;20518;-72
2023/04/05 06:46:19;;;;;;;12.20;3.05;;;15.70;99.90;;;;;;5078400;28;21156;-72
2023/04/05 06:48:47;;;;;;;14.00;3.47;;;15.70;99.90;;;;;;5077040;28;20983;-72
2023/04/05 06:51:13;;;;;;;13.88;3.25;;;15.80;99.90;;;;;;5087072;28;20754;-72
2023/04/05 06:53:40;;;;;;;13.80;3.40;;;15.90;99.90;;;;;;5072869;28;20876;-72
2023/04/05 06:56:07;;;;;;;12.13;3.30;;;15.90;99.90;;;;;;5105923;27;20815;-73
2023/04/05 06:58:33;;;;;;;14.57;3.60;;;15.90;99.90;;;;;;5074201;28;20416;-72
2023/04/05 07:01:03;;;;;;;16.30;3.38;;;15.90;99.90;;;;;;5085716;28;21081;-72
2023/04/05 07:03:29;;;;;;;15.50;3.70;;;15.90;99.90;;;;;;5077533;28;20417;-72
2023/04/05 07:06:00;;;;;;;15.00;3.20;;;15.80;99.90;;;;;;5073715;28;20419;-72
2023/04/05 07:08:30;;;;;;;14.63;3.38;;;15.70;99.90;;;;;;5075550;28;20402;-72
2023/04/05 07:10:56;;;;;;;12.98;3.20;;;15.60;99.90;;;;;;5075506;28;20456;-72
2023/04/05 07:13:24;;;;;;;14.68;3.38;;;15.20;99.90;;;;;;5076480;28;20507;-72
2023/04/05 07:15:51;;;;;;;14.90;3.47;;;14.90;99.90;;;;;;5076202;28;20424;-72
2023/04/05 07:18:21;;;;;;;14.05;3.40;;;14.70;99.90;;;;;;5079827;28;20410;-72
2023/04/05 07:20:48;;;;;;;15.45;3.50;;;14.60;99.90;;;;;;5076727;28;20984;-72
2023/04/05 07:23:15;;;;;;;13.32;3.38;;;15.10;99.90;;;;;;5095768;27;20464;-72
2023/04/05 07:25:41;;;;;;;14.07;3.20;;;15.20;99.90;;;;;;5080982;28;20415;-72
2023/04/05 07:28:07;;;;;;;13.75;3.30;;;15.10;99.90;;;;;;5075477;28;20408;-72
2023/04/05 07:30:35;;;;;;;14.60;3.50;;;15.00;99.90;;;;;;5077941;28;20503;-72
2023/04/05 07:33:02;;;;;;;15.65;3.47;;;15.10;99.90;;;;;;5070388;28;20454;-72
2023/04/05 07:35:28;;;;;;;17.50;3.80;;;15.30;99.90;;;;;;5073530;28;20419;-72
2023/04/05 07:37:55;;;;;;;15.57;3.45;;;15.30;99.90;;;;;;5076762;28;21182;-72
2023/04/05 07:40:22;;;;;;;16.10;3.60;;;15.30;99.90;;;;;;5055302;28;20423;-72
2023/04/05 07:42:48;;;;;;;12.60;3.55;;;15.20;99.90;;;;;;5074415;28;20791;-72
2023/04/05 07:45:15;;;;;;;14.15;3.28;;;15.20;99.90;;;;;;5078032;28;20501;-73
2023/04/05 07:47:41;;;;;;;15.80;3.60;;;15.10;99.90;;;;;;5075914;28;20895;-72
2023/04/05 07:50:10;;;;;;;17.05;3.55;;;15.10;99.90;;;;;;5073816;28;20405;-72
2023/04/05 07:52:36;;;;;;;13.33;3.50;;;15.10;99.90;;;;;;5075340;28;21966;-72
2023/04/05 07:55:03;;;;;;;14.57;3.60;;;14.90;99.90;;;;;;5079531;28;20463;-73
2023/04/05 07:57:29;;;;;;;14.50;3.42;;;14.90;99.90;;;;;;5071443;28;20502;-73
2023/04/05 07:59:56;;;;;;;17.38;3.83;;;14.90;99.90;;;;;;5091574;28;20407;-72
2023/04/05 08:02:22;;;;;;;14.73;3.72;;;15.10;99.90;;;;;;5075650;28;20421;-72
2023/04/05 08:04:48;;;;;;;14.27;3.23;;;15.40;99.90;;;;;;5080329;28;20481;-72
2023/04/05 08:07:14;;;;;;;11.82;3.13;;;15.60;99.90;;;;;;5075133;28;20469;-72
2023/04/05 08:09:41;;;;;;;11.30;3.00;;;15.70;99.90;;;;;;5101158;27;20421;-72
2023/04/05 08:12:07;;;;;;;13.02;3.28;;;15.60;99.90;;;;;;5068326;28;20421;-72
2023/04/05 08:14:34;;;;;;;13.40;3.45;;;15.40;99.90;;;;;;5067391;28;20415;-72
2023/04/05 08:17:01;;;;;;;12.70;3.00;;;15.50;99.90;;;;;;5073871;28;20438;-72
2023/04/05 08:19:27;;;;;;;14.07;3.47;;;15.80;99.90;;;;;;5072267;28;20770;-72
2023/04/05 08:21:53;;;;;;;13.30;3.30;;;15.80;99.90;;;;;;5079919;28;20543;-72
2023/04/05 08:24:19;;;;;;;18.17;3.72;;;15.80;99.90;;;;;;5076732;28;20510;-72
2023/04/05 08:26:46;;;;;;;13.73;3.50;;;15.90;99.90;;;;;;5075965;28;20428;-72
2023/04/05 08:29:12;;;;;;;12.30;3.35;;;15.90;99.90;;;;;;5073527;28;20407;-72
2023/04/05 08:31:38;;;;;;;15.63;3.40;;;16.10;99.90;;;;;;5075723;28;20420;-72
2023/04/05 08:34:07;;;;;;;16.33;3.63;;;16.20;99.90;;;;;;5068826;28;20613;-72
2023/04/05 08:36:33;;;;;;;14.55;3.70;;;16.30;99.90;;;;;;5069418;28;20476;-72
2023/04/05 08:38:59;;;;;;;12.77;3.40;;;16.40;99.90;;;;;;5080127;28;20411;-72
2023/04/05 08:41:35;;;;;;;17.25;3.85;;;16.40;99.90;;;;;;5053967;28;20411;-72
2023/04/05 08:44:04;;;;;;;15.00;3.38;;;16.40;99.90;;;;;;5088140;27;20451;-72
2023/04/05 08:46:33;;;;;;;14.57;3.15;;;16.40;99.90;;;;;;5073239;28;20490;-72
2023/04/05 08:49:07;;;;;;;12.05;2.95;;;16.40;99.90;;;;;;5072975;28;20406;-72
2023/04/05 08:51:38;;;;;;;11.43;3.43;;;16.50;99.90;;;;;;5067005;28;20406;-72
2023/04/05 08:54:04;;;;;;;13.25;3.13;;;16.60;99.90;;;;;;5074366;28;20415;-72
2023/04/05 08:56:35;;;;;;;12.27;3.08;;;16.70;99.90;;;;;;5057138;28;20414;-72
2023/04/05 08:59:08;;;;;;;10.70;3.08;;;16.60;99.90;;;;;;5057139;28;20422;-72
2023/04/05 09:01:43;;;;;;;13.50;3.60;;;16.40;99.90;;;;;;5073189;28;20813;-72
2023/04/05 09:04:19;;;;;;;15.18;3.83;;;16.10;99.90;;;;;;5071354;28;20486;-72
2023/04/05 09:06:49;;;;;;;13.07;3.80;;;15.70;99.90;;;;;;5070160;28;20470;-73
2023/04/05 09:09:19;;;;;;;15.00;3.50;;;15.50;99.90;;;;;;5071703;28;22194;-72
2023/04/05 09:11:46;;;;;;;18.10;3.93;;;15.70;99.90;;;;;;5071062;28;20406;-72
2023/04/05 09:14:12;;;;;;;13.55;3.72;;;16.00;99.90;;;;;;5079104;28;20490;-73
2023/04/05 09:16:40;;;;;;;13.35;3.45;;;16.20;99.90;;;;;;5074942;28;22257;-72
2023/04/05 09:19:08;;;;;;;13.65;3.25;;;16.30;99.90;;;;;;5058084;28;20525;-72
2023/04/05 09:22:05;;;;;;;13.63;3.72;;;16.40;99.90;;;;;;5070732;28;20423;-72
2023/04/05 09:24:42;;;;;;;15.60;3.80;;;16.40;99.90;;;;;;5077571;28;20414;-72
2023/04/05 09:27:17;;;;;;;12.70;3.60;;;16.60;99.90;;;;;;5089451;27;20862;-72
2023/04/05 09:29:49;;;;;;;18.25;3.92;;;16.60;99.90;;;;;;5095963;27;20457;-72
2023/04/05 09:32:18;;;;;;;12.13;3.47;;;16.80;99.90;;;;;;5094314;28;20467;-72
2023/04/05 09:34:44;;;;;;;16.40;3.92;;;17.00;99.90;;;;;;5076127;28;20407;-72
2023/04/05 09:37:19;;;;;;;16.25;3.67;;;17.20;99.90;;;;;;5080682;28;20418;-72
2023/04/05 09:39:49;;;;;;;15.40;3.60;;;17.40;99.90;;;;;;5071301;28;21141;-72
2023/04/05 09:42:23;;;;;;;10.30;3.08;;;17.40;99.90;;;;;;5061116;28;20816;-72
2023/04/05 09:45:04;;;;;;;14.48;3.50;;;17.40;99.90;;;;;;5076324;28;20998;-72
2023/04/05 09:47:35;;;;;;;15.48;3.90;;;17.50;99.90;;;;;;5075302;28;20447;-72
2023/04/05 09:50:16;;;;;;;18.37;4.20;;;17.60;99.90;;;;;;5078758;28;20430;-72
2023/04/05 09:52:44;;;;;;;13.82;3.70;;;17.90;99.90;;;;;;5052181;28;20413;-72
2023/04/05 09:55:11;;;;;;;14.27;3.70;;;18.30;99.90;;;;;;5073277;28;20408;-72
2023/04/05 09:57:42;;;;;;;16.73;3.90;;;18.50;99.90;;;;;;5077295;28;21070;-72
2023/04/05 10:00:22;;;;;;;16.50;4.20;;;18.30;99.90;;;;;;5077543;28;20485;-72
2023/04/05 10:02:54;;;;;;;15.88;3.50;;;18.10;99.90;;;;;;5078631;28;20419;-72
2023/04/05 10:05:26;;;;;;;16.08;3.78;;;17.60;99.90;;;;;;5077975;28;20417;-72
2023/04/05 10:07:55;;;;;;;18.02;3.78;;;17.80;99.90;;;;;;5072515;28;20417;-72
2023/04/05 10:10:23;;;;;;;13.07;3.25;;;19.30;99.90;;;;;;5077182;28;20403;-72
2023/04/05 10:12:51;;;;;;;16.35;3.92;;;19.60;99.90;;;;;;5071644;28;21056;-72
2023/04/05 10:15:18;;;;;;;13.45;3.63;;;19.10;99.90;;;;;;5073129;28;20465;-72
2023/04/05 10:18:03;;;;;;;17.90;3.92;;;18.80;99.90;;;;;;5075439;28;21468;-72
2023/04/05 10:20:38;;;;;;;17.63;4.10;;;18.50;99.90;;;;;;5074851;28;20504;-72
2023/04/05 10:23:11;;;;;;;19.70;4.30;;;18.30;99.90;;;;;;5094633;27;20440;-72
2023/04/05 10:26:00;;;;;;;16.75;4.38;;;18.00;99.90;;;;;;5076636;28;20413;-72
2023/04/05 10:28:36;;;;;;;15.35;4.30;;;17.80;99.90;;;;;;5074838;28;20722;-72
2023/04/05 10:31:26;;;;;;;16.60;4.15;;;17.70;99.90;;;;;;5073673;28;20819;-72
2023/04/05 10:34:06;;;;;;;16.73;4.05;;;17.90;99.90;;;;;;5059652;28;20940;-72
2023/04/05 10:37:00;;;;;;;20.40;4.20;;;18.10;99.90;;;;;;5077507;28;20439;-72
2023/04/05 10:39:44;;;;;;;13.55;3.50;;;18.10;99.90;;;;;;5072939;28;20416;-72
2023/04/05 10:42:44;;;;;;;16.57;4.07;;;17.80;99.90;;;;;;5078751;28;20585;-72
2023/04/05 10:45:16;;;;;;;15.40;3.80;;;17.50;99.90;;;;;;5079240;28;20467;-72
2023/04/05 10:48:10;;;;;;;15.30;4.40;;;17.30;99.90;;;;;;5109471;27;20410;-72
2023/04/05 10:50:38;;;;;;;20.15;4.45;;;17.00;99.90;;;;;;5101056;27;20929;-72
2023/04/05 10:53:06;;;;;;;18.08;4.78;;;16.90;99.90;;;;;;5082441;28;20413;-72
2023/04/05 10:55:35;;;;;;;16.17;4.35;;;16.80;99.90;;;;;;5081926;28;20445;-72
2023/04/05 10:58:02;;;;;;;20.25;4.43;;;16.80;99.90;;;;;;5074898;28;20446;-72
2023/04/05 11:00:29;;;;;;;21.83;4.95;;;16.90;99.90;;;;;;5078639;28;20773;-72
2023/04/05 11:02:56;;;;;;;23.30;5.05;;;17.00;99.90;;;;;;5077537;28;20419;-72
2023/04/05 11:05:36;;;;;;;22.80;4.88;;;16.90;99.90;;;;;;5060310;28;20500;-72
2023/04/05 11:08:08;;;;;;;21.33;4.63;;;16.90;99.90;;;;;;5073536;28;20455;-72
2023/04/05 11:10:38;;;;;;;20.48;4.70;;;17.10;99.90;;;;;;5074576;28;20415;-72
2023/04/05 11:13:09;;;;;;;19.30;4.45;;;17.10;99.90;;;;;;5062651;28;20397;-72
2023/04/05 11:15:36;;;;;;;15.77;4.10;;;17.10;99.90;;;;;;5079857;28;20411;-72
2023/04/05 11:18:08;;;;;;;25.00;5.07;;;17.10;99.90;;;;;;5073510;28;20412;-72
2023/04/05 11:21:06;;;;;;;21.52;4.65;;;17.30;99.90;;;;;;5104602;27;20419;-72
2023/04/05 11:24:05;;;;;;;18.30;4.72;;;17.50;99.90;;;;;;5072804;28;20445;-73
2023/04/05 11:26:46;;;;;;;19.23;5.22;;;17.60;99.90;;;;;;5076844;28;20416;-73
2023/04/05 11:29:15;;;;;;;25.77;8.52;;;17.40;99.90;;;;;;5076085;28;20934;-72
2023/04/05 11:31:59;;;;;;;26.63;5.50;;;17.40;99.90;;;;;;5071939;28;20411;-72
2023/04/05 11:34:25;;;;;;;18.00;4.90;;;17.40;99.90;;;;;;5080569;28;20422;-72
2023/04/05 11:36:51;;;;;;;23.40;6.85;;;17.50;99.90;;;;;;5075426;28;20441;-72
2023/04/05 11:39:20;;;;;;;21.02;6.60;;;17.40;99.90;;;;;;5078453;28;20404;-73
2023/04/05 11:42:02;;;;;;;24.50;6.10;;;17.40;99.90;;;;;;5062641;28;20770;-73
2023/04/05 11:44:48;;;;;;;23.48;5.07;;;17.40;99.90;;;;;;5100626;27;20413;-72
2023/04/05 11:47:21;;;;;;;26.83;5.63;;;17.30;99.90;;;;;;5074972;28;20430;-72
2023/04/05 11:49:51;;;;;;;18.93;4.87;;;17.10;99.90;;;;;;5069547;28;20522;-73
2023/04/05 11:52:21;;;;;;;17.80;4.23;;;17.00;99.90;;;;;;5073573;28;20498;-72
2023/04/05 11:54:48;;;;;;;16.52;4.43;;;16.80;99.90;;;;;;5076454;28;20431;-72
2023/04/05 11:57:24;;;;;;;18.88;4.47;;;17.10;99.90;;;;;;5080835;28;20418;-73
2023/04/05 11:59:52;;;;;;;18.15;4.18;;;17.10;99.90;;;;;;5077864;28;20423;-73
2023/04/05 12:02:20;;;;;;;16.17;4.38;;;16.90;99.90;;;;;;5072323;28;20498;-72
2023/04/05 12:04:56;;;;;;;18.70;4.65;;;16.80;99.90;;;;;;5070954;28;20444;-72
2023/04/05 12:07:35;;;;;;;17.33;4.20;;;16.90;99.90;;;;;;5070240;28;20551;-72
2023/04/05 12:10:07;;;;;;;17.23;4.70;;;17.20;99.90;;;;;;5062185;28;20425;-72
2023/04/05 12:12:42;;;;;;;17.98;4.10;;;17.40;99.90;;;;;;5072417;28;20781;-72
2023/04/05 12:15:13;;;;;;;18.08;4.15;;;17.60;99.90;;;;;;5073478;28;20411;-73
2023/04/05 12:17:54;;;;;;;17.00;4.43;;;17.70;99.90;;;;;;5078446;28;20443;-73
2023/04/05 12:20:24;;;;;;;16.52;4.25;;;17.80;99.90;;;;;;5074623;28;21011;-72
2023/04/05 12:22:54;;;;;;;20.43;4.17;;;17.90;99.90;;;;;;5072219;28;20414;-72
2023/04/05 12:25:21;;;;;;;15.88;3.97;;;18.00;99.90;;;;;;5072208;28;20738;-72
2023/04/05 12:27:47;;;;;;;14.88;3.80;;;18.00;99.90;;;;;;5071709;28;20421;-72
2023/04/05 12:30:20;;;;;;;14.18;3.53;;;17.90;99.90;;;;;;5052460;28;20434;-72
2023/04/05 12:32:54;;;;;;;15.95;3.60;;;18.00;99.90;;;;;;5073035;28;20906;-73
2023/04/05 12:35:31;;;;;;;18.33;4.07;;;18.00;99.90;;;;;;5071325;28;21283;-72
2023/04/05 12:37:59;;;;;;;18.08;4.03;;;18.00;99.90;;;;;;5069720;28;20924;-73
2023/04/05 12:40:29;;;;;;;18.45;3.78;;;17.90;99.90;;;;;;5081845;28;20494;-73
2023/04/05 12:43:05;;;;;;;16.38;4.00;;;18.00;99.90;;;;;;5075599;28;20420;-73
2023/04/05 12:45:41;;;;;;;14.50;3.87;;;18.00;99.90;;;;;;5067627;28;20471;-73
2023/04/05 12:48:26;;;;;;;15.60;4.00;;;18.00;99.90;;;;;;5077822;28;20446;-73
2023/04/05 12:50:53;;;;;;;19.85;4.15;;;18.00;99.90;;;;;;5097612;27;20841;-73